Time;durP1;ratioP1;P1;durP2;ratioP2;P2;SDS_P1;SDS_P2;PMS_P1;PMS_P2;Temp;Humidity;BMP_temperature;BMP_pressure;BME280_temperature;BME280_humidity;BME280_pressure;Samples;Min_cycle;Max_cycle;Signal;HPM_P1;HPM_P2
2022/01/28 00:01:49;;;;;;;12.88;1.85;;;;;;;8.41;63.93;103169.69;4973900;28;20054;-59
2022/01/28 00:04:17;;;;;;;12.40;1.85;;;;;;;8.40;63.97;103170.50;4970013;28;20370;-59
2022/01/28 00:06:42;;;;;;;19.08;1.90;;;;;;;8.44;63.67;103171.56;4979717;28;20552;-59
2022/01/28 00:09:08;;;;;;;13.73;1.52;;;;;;;8.48;64.04;103177.00;4979692;28;20044;-59
2022/01/28 00:11:33;;;;;;;13.48;1.70;;;;;;;8.44;63.93;103176.75;4982953;28;20037;-60
2022/01/28 00:14:24;;;;;;;11.23;1.65;;;;;;;8.42;64.56;103176.66;4980468;28;20046;-59
2022/01/28 00:38:31;;;;;;;18.92;1.73;;;;;;;8.55;65.12;103188.66;4978350;28;20048;-60
2022/01/28 00:40:57;;;;;;;17.02;1.77;;;;;;;8.59;65.09;103187.16;4974150;28;20496;-59
2022/01/28 00:43:22;;;;;;;10.95;1.88;;;;;;;8.51;65.41;103184.13;4976437;28;20045;-59
2022/01/28 00:45:48;;;;;;;12.75;1.67;;;;;;;8.66;65.15;103186.72;4979895;28;20038;-59
2022/01/28 00:48:13;;;;;;;21.67;1.95;;;;;;;8.59;65.13;103194.97;4970797;28;20509;-58
2022/01/28 00:50:41;;;;;;;18.48;2.05;;;;;;;8.54;65.60;103202.47;4980401;28;20412;-59
2022/01/28 00:53:07;;;;;;;18.48;1.83;;;;;;;8.69;65.43;103218.09;4975203;28;20041;-59
2022/01/28 00:55:32;;;;;;;16.95;1.77;;;;;;;8.61;65.10;103216.72;4983037;28;20099;-59
2022/01/28 00:57:57;;;;;;;11.57;1.83;;;;;;;8.63;65.53;103217.72;4978292;28;20519;-59
2022/01/28 01:00:23;;;;;;;20.08;1.77;;;;;;;8.67;65.24;103219.69;4972360;28;20449;-60
2022/01/28 01:02:49;;;;;;;19.45;2.00;;;;;;;8.73;64.75;103218.34;4979311;28;20149;-59
2022/01/28 01:05:14;;;;;;;16.30;1.65;;;;;;;8.73;64.58;103209.66;4980457;28;20050;-59
2022/01/28 01:07:40;;;;;;;12.25;2.00;;;;;;;8.69;64.97;103216.38;4981925;28;20378;-59
2022/01/28 01:10:06;;;;;;;10.13;1.48;;;;;;;8.57;65.33;103217.38;4977204;28;20037;-58
2022/01/28 01:12:35;;;;;;;15.15;1.83;;;;;;;8.55;65.33;103223.38;4975369;28;20160;-58
2022/01/28 01:15:00;;;;;;;12.85;1.70;;;;;;;8.53;65.69;103214.59;4980649;28;20041;-58
2022/01/28 01:17:34;;;;;;;13.48;1.50;;;;;;;8.48;65.76;103217.72;4981023;28;20727;-60
2022/01/28 01:20:32;;;;;;;10.55;1.60;;;;;;;8.43;66.91;103225.25;4981471;28;20077;-58
2022/01/28 01:23:14;;;;;;;11.27;1.75;;;;;;;8.36;66.65;103220.47;4979361;28;20076;-59
2022/01/28 01:25:45;;;;;;;15.52;2.08;;;;;;;8.38;67.03;103226.69;4987932;28;20038;-60
2022/01/28 01:28:12;;;;;;;14.02;1.48;;;;;;;8.35;66.94;103236.91;4977402;28;20034;-60
2022/01/28 01:30:43;;;;;;;19.08;1.77;;;;;;;8.30;67.76;103245.16;4979241;28;20733;-59
2022/01/28 01:33:09;;;;;;;14.20;1.75;;;;;;;8.39;67.76;103249.28;4977347;28;20378;-60
2022/01/28 01:35:35;;;;;;;11.40;1.90;;;;;;;8.33;68.00;103251.50;4982039;28;20058;-59
2022/01/28 01:38:02;;;;;;;17.27;1.75;;;;;;;8.32;68.57;103254.91;4978014;28;20197;-59
2022/01/28 01:40:37;;;;;;;15.25;1.70;;;;;;;8.38;68.80;103256.97;4967681;28;20053;-59
2022/01/28 01:43:15;;;;;;;13.13;1.60;;;;;;;8.38;68.83;103265.66;4975976;28;20042;-59
2022/01/28 01:53:42;;;;;;;18.13;1.95;;;;;;;8.73;69.00;103266.84;4972625;28;20777;-59
2022/01/28 01:56:07;;;;;;;13.63;1.80;;;;;;;8.70;67.76;103266.69;4972530;28;20076;-60
2022/01/28 01:58:33;;;;;;;11.23;1.85;;;;;;;8.90;66.30;103280.03;4981230;28;20037;-60
2022/01/28 02:01:00;;;;;;;11.60;1.65;;;;;;;9.07;66.28;103285.34;4977922;28;20061;-60
2022/01/28 02:03:26;;;;;;;14.52;1.60;;;;;;;9.09;67.60;103289.81;4977519;28;20049;-58
2022/01/28 02:05:55;;;;;;;10.48;1.58;;;;;;;8.99;68.23;103290.09;4979440;28;20103;-59
2022/01/28 02:08:20;;;;;;;7.72;1.50;;;;;;;8.95;67.51;103275.13;4972021;28;20045;-59
2022/01/28 02:10:46;;;;;;;7.55;1.20;;;;;;;8.88;67.13;103276.47;4978600;28;20069;-59
2022/01/28 02:13:11;;;;;;;5.47;1.02;;;;;;;8.73;66.60;103285.97;4981356;28;20049;-59
2022/01/28 02:15:36;;;;;;;5.65;0.90;;;;;;;8.55;66.73;103290.06;4979492;28;20046;-57
2022/01/28 02:18:02;;;;;;;10.27;1.42;;;;;;;8.43;66.97;103281.53;4979113;28;20045;-58
2022/01/28 02:20:35;;;;;;;17.55;1.40;;;;;;;8.18;68.49;103280.81;4975107;28;20044;-60
2022/01/28 02:23:01;;;;;;;7.93;1.27;;;;;;;8.03;68.12;103285.97;4976883;28;20054;-59
2022/01/28 02:25:28;;;;;;;12.25;1.40;;;;;;;8.01;68.25;103288.47;4983210;28;20440;-59
2022/01/28 02:27:55;;;;;;;10.88;1.60;;;;;;;7.83;69.12;103286.44;4978883;28;20649;-59
2022/01/28 02:30:21;;;;;;;14.00;1.80;;;;;;;7.69;69.55;103286.44;4971118;28;20041;-57
2022/01/28 02:32:48;;;;;;;8.40;1.40;;;;;;;7.61;69.69;103294.56;4975574;28;20618;-58
2022/01/28 02:35:14;;;;;;;9.40;1.70;;;;;;;7.48;70.25;103287.69;4979992;28;20389;-59
2022/01/28 02:37:40;;;;;;;8.88;1.45;;;;;;;7.38;70.64;103295.66;4976360;28;20048;-59
2022/01/28 02:40:06;;;;;;;10.73;1.50;;;;;;;7.33;70.55;103292.78;4970854;28;20770;-58
2022/01/28 02:42:57;;;;;;;12.27;1.55;;;;;;;7.23;71.63;103290.41;4973068;28;20072;-58
2022/01/28 02:45:30;;;;;;;14.43;1.88;;;;;;;7.46;71.42;103293.56;4979966;28;20046;-58
2022/01/28 02:48:06;;;;;;;20.80;2.20;;;;;;;7.44;71.79;103293.47;4979892;28;20046;-58
2022/01/28 02:50:40;;;;;;;11.70;1.98;;;;;;;7.47;71.98;103296.28;4973810;28;20435;-58
2022/01/28 02:53:09;;;;;;;23.35;2.20;;;;;;;7.53;72.13;103296.66;4985825;28;20042;-57
2022/01/28 02:55:40;;;;;;;12.55;2.20;;;;;;;7.51;72.45;103295.66;4977805;28;20053;-58
2022/01/28 02:58:23;;;;;;;15.65;2.20;;;;;;;7.62;72.08;103301.56;4980568;28;20042;-58
2022/01/28 03:00:49;;;;;;;14.88;1.60;;;;;;;7.66;72.28;103304.44;4976410;28;20112;-58
2022/01/28 03:03:18;;;;;;;16.30;2.15;;;;;;;7.67;72.20;103315.72;4976878;28;20065;-58
2022/01/28 03:05:44;;;;;;;14.35;1.60;;;;;;;7.67;71.85;103314.03;4979456;28;20056;-59
2022/01/28 03:08:10;;;;;;;21.23;2.13;;;;;;;7.62;72.04;103320.59;4965833;28;20054;-59
2022/01/28 03:11:01;;;;;;;17.85;2.05;;;;;;;7.73;71.50;103323.91;4979857;28;20587;-59
2022/01/28 03:16:06;;;;;;;16.27;1.95;;;;;;;7.73;71.03;103330.00;4979132;28;20152;-58
2022/01/28 03:18:42;;;;;;;15.98;1.80;;;;;;;7.58;71.04;103323.81;4972611;28;20133;-59
2022/01/28 03:21:19;;;;;;;11.55;2.00;;;;;;;7.80;70.45;103328.69;4976473;28;20355;-59
2022/01/28 03:23:45;;;;;;;9.88;1.45;;;;;;;7.80;70.57;103328.69;4977252;28;20061;-59
2022/01/28 03:26:10;;;;;;;16.70;2.08;;;;;;;7.89;70.06;103321.47;4970154;28;20116;-60
2022/01/28 03:28:36;;;;;;;13.23;1.80;;;;;;;7.75;69.95;103323.19;4977024;28;20038;-58
2022/01/28 03:31:01;;;;;;;11.80;1.40;;;;;;;7.75;69.83;103315.41;4989811;28;20137;-59
2022/01/28 03:33:26;;;;;;;11.35;1.48;;;;;;;7.75;69.55;103320.59;4974486;28;20367;-59
2022/01/28 03:35:52;;;;;;;10.98;1.65;;;;;;;7.56;69.96;103321.94;4978078;28;20061;-59
2022/01/28 03:38:17;;;;;;;15.10;1.95;;;;;;;7.65;69.73;103319.91;4972479;28;20047;-59
2022/01/28 03:40:43;;;;;;;10.10;1.70;;;;;;;7.66;69.45;103321.72;4980279;28;20057;-58
2022/01/28 03:43:08;;;;;;;14.57;1.65;;;;;;;7.65;69.44;103326.00;4978859;28;20133;-59
2022/01/28 03:45:34;;;;;;;7.95;1.25;;;;;;;7.65;68.99;103333.81;4980756;28;20387;-59
2022/01/28 03:47:59;;;;;;;12.38;1.77;;;;;;;7.61;68.94;103329.22;4982333;28;20053;-58
2022/01/28 03:50:25;;;;;;;14.75;1.60;;;;;;;7.68;68.26;103333.97;4968862;28;20108;-59
2022/01/28 03:52:50;;;;;;;13.05;1.40;;;;;;;7.71;67.91;103334.19;4985877;28;20043;-59
2022/01/28 03:55:16;;;;;;;10.73;1.40;;;;;;;7.71;67.83;103339.38;4980595;28;20046;-59
2022/01/28 03:57:41;;;;;;;9.63;1.30;;;;;;;7.56;67.45;103342.72;4976406;28;20061;-59
2022/01/28 04:00:07;;;;;;;11.50;1.40;;;;;;;7.57;67.07;103347.06;4977435;28;20383;-59
2022/01/28 04:02:37;;;;;;;12.52;1.38;;;;;;;7.64;67.30;103350.16;4979606;28;20057;-59
2022/01/28 04:13:21;;;;;;;13.85;1.30;;;;;;;7.20;67.74;103344.66;4981429;28;20077;-58
2022/01/28 04:16:04;;;;;;;13.02;1.25;;;;;;;7.29;67.76;103346.97;4980056;28;20424;-58
2022/01/28 04:18:30;;;;;;;10.48;1.20;;;;;;;7.13;67.76;103350.28;4977319;28;20131;-58
2022/01/28 04:20:55;;;;;;;11.05;1.50;;;;;;;7.03;67.86;103358.22;4975632;28;20117;-57
2022/01/28 04:23:20;;;;;;;14.68;1.58;;;;;;;6.96;68.07;103363.78;4977998;28;20081;-59
2022/01/28 04:25:46;;;;;;;14.02;1.60;;;;;;;6.92;68.15;103362.69;4980495;28;20373;-58
2022/01/28 04:28:11;;;;;;;9.25;1.60;;;;;;;6.82;68.86;103368.06;4974789;28;20088;-59
2022/01/28 04:30:36;;;;;;;15.32;1.83;;;;;;;6.92;69.02;103369.56;4978997;28;20050;-58
2022/01/28 04:33:02;;;;;;;15.30;1.77;;;;;;;6.90;69.06;103364.25;4993381;28;20529;-59
2022/01/28 04:35:27;;;;;;;15.43;1.67;;;;;;;6.92;69.82;103370.47;4976017;28;20038;-58
2022/01/28 04:40:44;;;;;;;9.30;1.23;;;;;;;6.84;69.34;103371.63;4981386;28;20107;-58
2022/01/28 04:43:20;;;;;;;17.10;1.65;;;;;;;6.84;69.08;103382.00;4982155;28;20470;-58
2022/01/28 04:54:35;;;;;;;7.68;1.40;;;;;;;6.80;69.47;103390.38;4978022;28;20145;-58
2022/01/28 05:01:54;;;;;;;11.18;1.30;;;;;;;6.72;69.47;103385.44;4980251;28;20133;-58
2022/01/28 05:23:18;;;;;;;9.18;1.63;;;;;;;6.34;69.88;103391.44;4947025;28;20189;-58
2022/01/28 05:28:12;;;;;;;11.68;1.40;;;;;;;6.23;70.52;103409.59;4973032;28;20577;-60
2022/01/28 05:30:37;;;;;;;10.60;1.60;;;;;;;6.24;70.21;103411.41;4977937;28;20119;-58
2022/01/28 05:33:03;;;;;;;8.73;1.13;;;;;;;6.18;70.82;103414.47;4977580;28;20045;-59
2022/01/28 05:35:30;;;;;;;7.95;1.60;;;;;;;6.14;70.51;103406.38;4982947;28;20054;-60
2022/01/28 05:37:55;;;;;;;12.18;1.70;;;;;;;6.16;70.64;103418.63;4982638;28;20600;-60
2022/01/28 05:40:21;;;;;;;17.80;1.67;;;;;;;6.10;71.25;103413.00;4966849;28;20504;-59
2022/01/28 05:42:46;;;;;;;9.68;1.73;;;;;;;6.10;71.36;103418.19;4980756;28;20172;-58
2022/01/28 05:45:11;;;;;;;10.15;1.90;;;;;;;6.12;71.04;103421.81;4981195;28;20049;-59
2022/01/28 05:47:37;;;;;;;11.20;1.80;;;;;;;6.17;71.08;103419.53;4981826;28;20088;-61
2022/01/28 05:50:05;;;;;;;8.20;1.58;;;;;;;6.20;70.89;103412.00;4975340;28;20038;-58
2022/01/28 05:52:31;;;;;;;9.88;1.70;;;;;;;6.17;70.88;103415.25;4977758;28;21873;-60
2022/01/28 05:54:57;;;;;;;13.35;1.63;;;;;;;6.14;71.51;103421.91;4969134;28;20588;-58
2022/01/28 05:57:22;;;;;;;8.23;1.33;;;;;;;6.15;71.31;103427.22;4981536;28;20046;-59
2022/01/28 05:59:48;;;;;;;8.82;1.35;;;;;;;6.14;70.91;103433.19;4980709;28;20042;-58
2022/01/28 06:02:13;;;;;;;7.50;1.80;;;;;;;6.13;70.85;103433.06;4972969;28;20133;-59
2022/01/28 06:04:39;;;;;;;6.85;1.55;;;;;;;6.08;71.11;103433.66;4977069;28;20046;-57
2022/01/28 06:07:04;;;;;;;11.40;1.80;;;;;;;6.05;70.87;103441.19;4974393;28;20492;-58
2022/01/28 06:09:30;;;;;;;12.48;1.67;;;;;;;6.04;71.08;103452.31;4977705;28;20664;-59
2022/01/28 06:11:55;;;;;;;14.57;1.75;;;;;;;6.04;71.17;103441.97;4978672;28;20077;-59
2022/01/28 06:14:20;;;;;;;10.65;1.75;;;;;;;6.03;71.11;103447.97;4970395;28;20064;-59
2022/01/28 06:16:46;;;;;;;11.82;1.63;;;;;;;5.99;70.99;103456.28;4971765;28;20816;-58
2022/01/28 06:19:11;;;;;;;7.95;1.40;;;;;;;5.96;71.31;103447.41;4981927;28;20417;-58
2022/01/28 06:21:36;;;;;;;13.93;1.60;;;;;;;5.94;71.04;103448.97;4976151;28;20419;-57
2022/01/28 06:24:02;;;;;;;9.70;1.67;;;;;;;5.94;70.80;103465.41;4978474;28;20128;-58
2022/01/28 06:26:28;;;;;;;10.88;1.42;;;;;;;5.96;70.85;103470.69;4972620;28;20045;-58
2022/01/28 06:28:53;;;;;;;13.65;1.50;;;;;;;5.94;71.18;103480.03;4965998;28;20460;-59
2022/01/28 06:31:19;;;;;;;13.23;1.60;;;;;;;5.90;70.95;103472.84;4978219;28;20034;-58
2022/01/28 06:33:44;;;;;;;13.00;1.52;;;;;;;5.89;70.81;103476.22;4980954;28;20038;-58
2022/01/28 06:36:10;;;;;;;13.65;1.63;;;;;;;5.87;71.27;103477.72;4974429;28;20038;-59
2022/01/28 06:38:35;;;;;;;7.03;1.63;;;;;;;5.83;70.85;103486.06;4976023;28;20115;-58
2022/01/28 06:41:00;;;;;;;8.98;1.50;;;;;;;5.76;71.18;103495.06;4977062;28;20115;-60
2022/01/28 06:43:26;;;;;;;7.03;1.35;;;;;;;5.69;71.76;103497.97;4978148;28;20308;-59
2022/01/28 06:45:51;;;;;;;10.05;1.35;;;;;;;5.68;71.16;103499.66;4978782;28;20046;-59
2022/01/28 06:48:17;;;;;;;7.05;1.35;;;;;;;5.65;71.09;103499.47;4973799;28;20129;-58
2022/01/28 06:50:43;;;;;;;9.90;1.60;;;;;;;5.58;70.77;103511.81;4980363;28;20130;-57
2022/01/28 06:53:10;;;;;;;9.88;1.38;;;;;;;5.51;71.12;103512.13;4979733;28;20033;-58
2022/01/28 06:55:36;;;;;;;9.18;1.50;;;;;;;5.44;71.24;103518.53;4973365;28;20112;-58
2022/01/28 06:58:03;;;;;;;7.90;1.30;;;;;;;5.39;71.41;103514.69;4974384;28;20488;-58
2022/01/28 07:00:30;;;;;;;7.53;1.45;;;;;;;5.38;71.00;103522.31;4974213;28;20149;-59
2022/01/28 07:02:55;;;;;;;5.57;1.60;;;;;;;5.35;71.13;103529.88;4974832;28;20437;-59
2022/01/28 07:05:21;;;;;;;9.20;1.77;;;;;;;5.34;71.48;103536.72;4979179;28;20057;-60
2022/01/28 07:07:47;;;;;;;8.02;1.70;;;;;;;5.36;71.17;103535.16;4972270;28;20113;-60
2022/01/28 07:10:12;;;;;;;9.68;1.75;;;;;;;5.31;71.56;103532.19;4973663;28;20034;-59
2022/01/28 07:12:38;;;;;;;8.55;1.75;;;;;;;5.30;71.79;103533.00;4970638;28;20053;-58
2022/01/28 07:15:04;;;;;;;8.20;1.40;;;;;;;5.30;71.48;103534.69;4976373;28;20382;-60
2022/01/28 07:17:29;;;;;;;12.13;1.90;;;;;;;5.34;71.57;103535.81;4978702;28;20464;-60
2022/01/28 07:19:54;;;;;;;13.98;2.00;;;;;;;5.40;71.67;103536.28;4977055;28;20049;-58
2022/01/28 07:22:20;;;;;;;7.65;1.80;;;;;;;5.45;71.99;103534.94;4971688;28;20139;-58
2022/01/28 07:24:45;;;;;;;8.70;1.70;;;;;;;5.49;71.83;103530.13;4979510;28;20477;-58
2022/01/28 07:27:10;;;;;;;9.65;1.70;;;;;;;5.52;71.73;103535.53;4977156;28;20122;-58
2022/01/28 07:29:36;;;;;;;10.95;2.10;;;;;;;5.54;72.09;103531.41;4975705;28;20434;-59
2022/01/28 07:32:02;;;;;;;8.60;1.55;;;;;;;5.52;71.83;103529.47;4967787;28;20046;-59
2022/01/28 07:34:28;;;;;;;9.23;1.95;;;;;;;5.49;71.83;103537.00;4971496;28;20108;-59
2022/01/28 07:36:53;;;;;;;8.25;2.13;;;;;;;5.51;71.78;103533.72;4978973;28;20046;-58
2022/01/28 07:39:19;;;;;;;11.35;2.58;;;;;;;5.53;71.92;103539.94;4976668;28;20054;-59
2022/01/28 07:41:44;;;;;;;8.48;1.80;;;;;;;5.56;72.32;103541.84;4978137;28;20077;-59
2022/01/28 07:44:10;;;;;;;13.75;2.30;;;;;;;5.56;71.91;103547.91;4969347;28;20552;-59
2022/01/28 07:46:35;;;;;;;10.70;2.38;;;;;;;5.56;72.23;103552.19;4979730;28;20034;-59
2022/01/28 07:49:01;;;;;;;9.20;2.10;;;;;;;5.56;72.36;103558.25;4978389;28;20050;-58
2022/01/28 07:51:26;;;;;;;8.48;2.25;;;;;;;5.55;71.96;103558.19;4994011;28;20120;-58
2022/01/28 07:53:52;;;;;;;13.55;2.97;;;;;;;5.54;72.22;103565.03;4980235;28;20034;-58
2022/01/28 07:56:17;;;;;;;11.20;3.00;;;;;;;5.54;71.79;103571.88;4970449;28;20124;-59
2022/01/28 07:58:43;;;;;;;8.63;2.55;;;;;;;5.53;72.25;103570.97;4973128;28;20261;-58
2022/01/28 08:01:08;;;;;;;11.38;3.08;;;;;;;5.54;72.37;103571.88;4977541;28;20460;-58
2022/01/28 08:03:34;;;;;;;11.60;3.13;;;;;;;5.58;72.53;103579.09;4990146;28;20049;-58
2022/01/28 08:05:59;;;;;;;8.00;2.40;;;;;;;5.60;72.62;103585.28;4977564;28;20536;-58
2022/01/28 08:08:25;;;;;;;10.35;3.13;;;;;;;5.63;72.46;103583.81;4971302;28;20045;-58
2022/01/28 08:10:50;;;;;;;13.45;2.90;;;;;;;5.63;72.62;103576.06;4978037;28;20099;-58
2022/01/28 08:13:16;;;;;;;13.60;3.72;;;;;;;5.67;72.27;103588.44;4972504;28;20054;-58
2022/01/28 08:15:41;;;;;;;9.30;2.90;;;;;;;5.72;72.29;103588.81;4978852;28;20050;-57
2022/01/28 08:18:07;;;;;;;13.38;3.40;;;;;;;5.80;72.93;103587.69;4976772;28;20680;-60
2022/01/28 08:20:33;;;;;;;9.75;3.47;;;;;;;5.89;72.72;103597.88;4978940;28;20048;-59
2022/01/28 08:23:00;;;;;;;11.00;2.88;;;;;;;6.00;72.64;103597.00;4978214;28;20073;-59
2022/01/28 08:25:26;;;;;;;10.77;2.80;;;;;;;6.14;73.01;103600.63;4975795;28;20417;-58
2022/01/28 08:27:52;;;;;;;12.85;2.90;;;;;;;6.26;73.04;103601.53;4969079;28;20113;-58
2022/01/28 08:30:19;;;;;;;12.93;2.70;;;;;;;6.41;73.29;103603.56;4968935;28;20104;-60
2022/01/28 08:32:46;;;;;;;15.80;2.38;;;;;;;6.58;73.01;103602.22;4980645;28;20493;-57
2022/01/28 08:35:12;;;;;;;12.25;2.72;;;;;;;6.75;72.93;103613.81;4977477;28;20108;-58
2022/01/28 08:37:38;;;;;;;17.42;3.35;;;;;;;6.91;72.95;103615.03;4971267;28;20555;-57
2022/01/28 08:40:06;;;;;;;14.35;2.30;;;;;;;7.10;72.72;103608.53;4989689;28;20065;-56
2022/01/28 08:42:31;;;;;;;15.15;2.65;;;;;;;7.30;72.73;103611.78;4989259;28;20107;-58
2022/01/28 08:44:56;;;;;;;11.48;2.22;;;;;;;7.48;72.88;103604.34;4995374;28;20467;-58
2022/01/28 08:47:22;;;;;;;9.43;2.10;;;;;;;7.64;72.52;103602.00;4978608;28;20037;-58
2022/01/28 08:49:47;;;;;;;11.50;2.58;;;;;;;7.75;71.59;103610.53;4982619;28;20133;-59
2022/01/28 08:52:13;;;;;;;17.13;2.88;;;;;;;7.82;71.10;103604.06;4978352;28;20117;-58
2022/01/28 08:54:38;;;;;;;15.77;3.20;;;;;;;7.89;70.74;103606.28;4979363;28;20042;-58
2022/01/28 08:57:04;;;;;;;11.38;2.35;;;;;;;7.94;70.58;103610.06;4976478;28;20048;-59
2022/01/28 08:59:30;;;;;;;11.75;2.45;;;;;;;8.02;70.45;103606.31;4971946;28;21933;-59
2022/01/28 09:01:55;;;;;;;7.93;2.30;;;;;;;8.09;70.78;103604.22;4982023;28;20497;-59
2022/01/28 09:04:21;;;;;;;14.23;2.35;;;;;;;8.17;70.49;103614.25;4980713;28;20461;-59
2022/01/28 09:06:46;;;;;;;13.63;2.30;;;;;;;8.26;70.67;103610.53;4980600;28;20076;-59
2022/01/28 09:09:11;;;;;;;15.30;2.35;;;;;;;8.39;70.33;103615.78;4989785;28;20107;-59
2022/01/28 09:14:22;;;;;;;17.03;2.60;;;;;;;8.62;69.74;103629.38;4975189;28;20427;-59
2022/01/28 09:16:47;;;;;;;13.15;2.60;;;;;;;8.76;69.81;103636.38;4985191;28;20568;-59
2022/01/28 09:19:13;;;;;;;16.88;2.45;;;;;;;8.89;69.66;103637.28;4990028;28;20041;-59
2022/01/28 09:21:38;;;;;;;13.88;2.47;;;;;;;8.91;68.63;103630.44;4986676;28;20053;-59
2022/01/28 09:24:04;;;;;;;10.18;2.50;;;;;;;9.08;68.95;103641.06;4986008;28;20456;-58
2022/01/28 09:26:30;;;;;;;10.27;2.33;;;;;;;9.19;68.54;103645.22;4985643;28;20038;-60
2022/01/28 09:28:56;;;;;;;12.48;2.85;;;;;;;9.32;68.80;103635.69;4999122;28;20052;-60
2022/01/28 09:31:21;;;;;;;13.65;2.53;;;;;;;9.49;68.90;103641.03;4989262;28;20115;-59
2022/01/28 09:33:47;;;;;;;16.10;2.90;;;;;;;9.53;67.27;103645.59;4984808;28;20072;-60
2022/01/28 09:36:12;;;;;;;16.08;3.42;;;;;;;9.69;67.19;103650.97;4983419;28;20124;-60
2022/01/28 09:38:37;;;;;;;17.05;3.10;;;;;;;9.86;67.08;103642.47;4980026;28;20505;-58
2022/01/28 09:41:06;;;;;;;19.20;3.30;;;;;;;9.91;64.71;103651.47;4986706;28;20042;-59
2022/01/28 09:43:31;;;;;;;18.20;3.30;;;;;;;9.98;64.48;103645.81;4987784;28;20509;-59
2022/01/28 09:45:57;;;;;;;20.23;3.65;;;;;;;10.08;64.52;103642.03;4985599;28;20132;-59
2022/01/28 09:48:23;;;;;;;16.83;3.25;;;;;;;10.23;64.75;103644.69;4984832;28;20508;-59
2022/01/28 09:50:49;;;;;;;17.73;3.20;;;;;;;10.30;64.03;103629.50;4989031;28;20069;-59
2022/01/28 09:53:15;;;;;;;14.82;2.95;;;;;;;10.36;63.80;103624.66;4986916;28;20515;-58
2022/01/28 09:55:41;;;;;;;13.38;2.42;;;;;;;10.37;63.02;103620.34;4992068;28;20072;-58
2022/01/28 09:58:06;;;;;;;9.77;2.40;;;;;;;10.35;62.51;103616.72;4966889;28;20046;-59
2022/01/28 10:00:33;;;;;;;12.48;2.30;;;;;;;10.39;62.07;103621.28;4994894;28;20196;-60
2022/01/28 10:03:03;;;;;;;13.25;1.90;;;;;;;10.33;61.71;103624.44;4977548;28;20034;-60
2022/01/28 10:05:29;;;;;;;13.18;1.80;;;;;;;10.43;62.26;103626.75;4981627;28;20169;-59
2022/01/28 10:08:15;;;;;;;8.15;1.70;;;;;;;10.42;61.04;103621.50;4988817;28;20050;-60
2022/01/28 10:10:49;;;;;;;10.23;1.75;;;;;;;10.48;61.54;103630.56;4981637;28;20073;-59
2022/01/28 10:13:24;;;;;;;15.60;1.67;;;;;;;10.50;61.71;103631.53;4979171;28;20656;-59
2022/01/28 10:15:58;;;;;;;8.57;1.40;;;;;;;10.50;61.35;103628.91;4986974;28;20050;-59
2022/01/28 10:18:43;;;;;;;9.57;1.33;;;;;;;10.53;61.25;103638.66;4983063;28;20095;-59
2022/01/28 10:21:24;;;;;;;11.25;1.40;;;;;;;10.41;60.76;103633.63;4982348;28;21096;-59
2022/01/28 10:24:04;;;;;;;9.60;1.48;;;;;;;10.34;60.97;103634.06;4983800;28;20049;-59
2022/01/28 10:26:37;;;;;;;13.52;1.58;;;;;;;10.33;61.02;103647.00;4977899;28;20046;-59
2022/01/28 10:29:08;;;;;;;12.82;1.58;;;;;;;10.23;61.41;103648.19;4999755;28;20034;-59
2022/01/28 10:31:44;;;;;;;11.55;1.80;;;;;;;10.11;61.35;103642.22;4983888;28;20599;-58
2022/01/28 10:34:27;;;;;;;10.32;1.73;;;;;;;10.04;62.17;103648.78;4972120;28;20405;-59
2022/01/28 10:37:06;;;;;;;11.77;1.95;;;;;;;9.93;61.39;103641.13;4987094;28;20046;-58
2022/01/28 10:39:40;;;;;;;11.80;1.80;;;;;;;9.97;61.43;103645.72;4984420;28;20049;-60
2022/01/28 10:42:06;;;;;;;13.85;1.85;;;;;;;9.98;61.17;103653.63;4971412;28;20402;-63
2022/01/28 10:44:32;;;;;;;10.05;1.70;;;;;;;10.03;61.49;103638.25;4987804;28;20049;-58
2022/01/28 10:46:59;;;;;;;11.63;1.95;;;;;;;10.14;60.74;103635.47;4984471;28;20223;-58
2022/01/28 10:49:30;;;;;;;11.30;1.60;;;;;;;10.27;61.08;103637.13;4985179;28;20109;-60
2022/01/28 10:52:04;;;;;;;10.77;1.70;;;;;;;10.32;60.96;103635.69;4980812;28;20380;-58
2022/01/28 10:54:29;;;;;;;11.75;1.50;;;;;;;10.29;60.33;103632.00;4980304;28;20042;-59
2022/01/28 10:56:57;;;;;;;12.15;1.48;;;;;;;10.36;60.52;103632.47;5004223;28;20077;-58
2022/01/28 10:59:41;;;;;;;13.93;1.60;;;;;;;10.43;60.13;103631.13;4963555;28;20502;-57
2022/01/28 11:02:07;;;;;;;11.75;1.52;;;;;;;10.52;60.76;103639.44;4984092;28;20111;-58
2022/01/28 11:04:33;;;;;;;14.40;2.00;;;;;;;10.49;60.53;103634.94;4978586;28;20068;-59
2022/01/28 11:07:00;;;;;;;13.20;2.30;;;;;;;10.47;60.79;103628.75;4985245;28;20057;-58
2022/01/28 11:09:25;;;;;;;11.25;1.80;;;;;;;10.46;60.55;103634.78;4985502;28;20046;-59
2022/01/28 11:11:53;;;;;;;11.05;1.77;;;;;;;10.53;60.21;103629.13;4982958;28;20116;-59
2022/01/28 11:14:19;;;;;;;12.50;2.30;;;;;;;10.47;59.66;103627.88;4978923;28;20038;-59
2022/01/28 11:16:45;;;;;;;13.20;1.60;;;;;;;10.48;60.11;103622.75;4984579;28;20192;-59
2022/01/28 11:19:14;;;;;;;12.05;2.00;;;;;;;10.44;59.86;103617.22;4980582;28;20046;-59
2022/01/28 11:21:49;;;;;;;11.73;2.08;;;;;;;10.50;60.55;103610.66;4984020;28;20501;-58
2022/01/28 11:24:51;;;;;;;12.57;2.50;;;;;;;10.62;60.22;103607.84;4978742;28;20049;-59
2022/01/28 11:27:37;;;;;;;7.50;2.00;;;;;;;10.73;59.84;103600.66;4988009;28;20469;-59
2022/01/28 11:30:25;;;;;;;7.05;1.52;;;;;;;10.82;59.34;103594.22;4980386;28;20037;-59
2022/01/28 11:33:04;;;;;;;12.02;2.28;;;;;;;10.89;58.94;103591.13;4981354;28;20417;-59
2022/01/28 11:35:41;;;;;;;12.30;1.90;;;;;;;11.10;58.67;103593.13;4981682;28;21362;-59
2022/01/28 11:38:24;;;;;;;10.30;2.10;;;;;;;11.31;58.59;103589.97;4974431;28;20045;-57
2022/01/28 11:40:56;;;;;;;12.07;2.47;;;;;;;11.46;57.61;103586.38;4974662;28;20061;-58
2022/01/28 11:43:29;;;;;;;10.32;2.28;;;;;;;11.54;57.05;103583.31;4979138;28;20140;-59
2022/01/28 11:46:11;;;;;;;8.43;2.03;;;;;;;11.60;56.54;103574.91;4985818;28;20113;-59
2022/01/28 11:48:51;;;;;;;11.88;1.98;;;;;;;11.55;56.04;103565.94;4983621;28;20050;-59
2022/01/28 11:51:17;;;;;;;8.05;1.92;;;;;;;11.58;56.32;103569.63;4983470;28;20041;-58
2022/01/28 11:53:54;;;;;;;14.43;2.20;;;;;;;11.41;56.22;103575.66;4981713;28;20038;-59
2022/01/28 11:56:21;;;;;;;15.23;2.45;;;;;;;11.30;56.47;103571.59;4980685;28;20460;-59
2022/01/28 11:59:09;;;;;;;11.73;2.45;;;;;;;11.20;56.55;103570.22;4982039;28;20058;-59
2022/01/28 12:01:38;;;;;;;13.18;2.30;;;;;;;11.13;57.33;103564.56;4969198;28;20038;-59
2022/01/28 12:04:35;;;;;;;9.77;2.55;;;;;;;11.12;57.52;103565.38;4986541;28;20060;-59
2022/01/28 12:07:10;;;;;;;12.23;2.60;;;;;;;11.14;57.47;103548.09;4984413;28;20046;-59
2022/01/28 12:09:36;;;;;;;11.63;2.28;;;;;;;11.18;57.67;103542.22;4990128;28;20049;-59
2022/01/28 12:12:03;;;;;;;12.30;2.30;;;;;;;11.24;57.91;103532.09;4977037;28;20363;-59
2022/01/28 12:14:47;;;;;;;9.88;2.30;;;;;;;11.24;56.71;103524.25;4983342;28;20207;-59
2022/01/28 12:17:31;;;;;;;8.18;2.10;;;;;;;11.32;55.34;103526.47;4989135;28;20064;-58
2022/01/28 12:20:19;;;;;;;9.30;2.30;;;;;;;11.42;55.61;103514.75;4990341;28;20048;-59
2022/01/28 12:23:04;;;;;;;11.57;2.45;;;;;;;11.48;56.15;103524.63;4988122;28;20048;-59
2022/01/28 12:25:36;;;;;;;15.73;3.13;;;;;;;11.57;56.59;103517.28;4992814;28;20065;-59
2022/01/28 12:28:19;;;;;;;18.48;4.40;;;;;;;11.64;56.63;103511.56;4981752;28;20160;-58
2022/01/28 12:30:50;;;;;;;18.10;5.38;;;;;;;11.73;56.21;103505.09;4985519;28;20050;-59
2022/01/28 12:33:22;;;;;;;20.38;6.18;;;;;;;11.86;56.73;103500.50;4987271;28;20133;-58
2022/01/28 12:35:51;;;;;;;19.55;6.07;;;;;;;11.91;56.54;103497.28;4986496;28;20080;-58
2022/01/28 12:38:20;;;;;;;15.98;6.07;;;;;;;11.90;56.32;103490.25;4972225;28;20086;-59
2022/01/28 12:40:48;;;;;;;18.10;6.28;;;;;;;11.93;56.83;103490.41;4993239;28;20022;-59
2022/01/28 12:43:18;;;;;;;19.02;6.85;;;;;;;11.84;56.79;103484.72;4986886;28;20115;-58
2022/01/28 12:45:48;;;;;;;19.08;6.32;;;;;;;11.88;57.04;103486.69;4987265;28;20129;-60
2022/01/28 12:48:20;;;;;;;14.23;5.50;;;;;;;11.94;56.55;103473.91;4981621;28;20049;-58
2022/01/28 12:50:50;;;;;;;13.77;4.85;;;;;;;11.98;55.69;103481.09;4987926;28;20045;-58
2022/01/28 12:53:45;;;;;;;17.35;5.13;;;;;;;11.98;55.54;103481.09;4987618;28;20045;-60